Detall de PIREP

Printer-friendly versionPDF version

[2016/12/06 07:34:00]
Flight IATA:CT2109
Pilot Number:012
Company ICAO:CAT
Aircraft Type:DC85/A
PAX:0
Aircraft Registration:CARGO
Departing Airport: LEMG
Destination Airport: LEVC
Alternate Airport:LEBL
Online: VATSIM
Route:VIBAS B28 ASTRO
Flight Level:F240
No Slew and time accel
No pause
Crash detect
Detect pilot in Cockpit between each 30 and 45 minutes
07:34 Zero fuel Weight: 187230 Lbs, Fuel Weight: 30160 Lbs
07:34 VATSIM:LEMG 060700Z 31005KT CAVOK 12/11 Q1023 NOSIG
07:34 VATSIM:LEVC 060700Z 33009KT 9999 FEW020 11/08 Q1025 NOSIG
07:37 Parking Brakes off
07:41 Take-off
07:41 Take off Weight: 216501 Lbs
07:41 Wind: 311º @ 005 Knots Heading: 136º
07:41 POS N36º 40´ 22´´ W004º 29´ 45´´
07:41 Flaps:2 at 180 Knots
07:41 Flaps:1 at 186 Knots
07:41 Flaps:0 at 205 Knots
07:41 Gear Up: 211 Knots
07:51 TOC
07:51 Fuel Weight: 25569 Lb
07:56 Wind:009º@034 Knots Heading: 052º Ground Speed: 386 Knots Altitude 24340 ft
08:11 Wind:358º@027 Knots Heading: 045º Ground Speed: 391 Knots Altitude 24333 ft
08:18 TOD
08:18 Fuel Weight: 20168 Lb
08:26 Wind:014º@013 Knots Heading: 053º Ground Speed: 311 Knots Altitude 12326 ft
08:30 Flaps:1 at 217 Knots
08:31 Flaps:2 at 222 Knots
08:34 Flaps:3 at 191 Knots
08:34 Gear Down: 176 Knots
08:35 Flaps:4 at 154 Knots
08:35 Flaps:5 at 135 Knots
08:39 TouchDown:Rate -232 ft/min Speed: 145 Knots
08:39 Flaps:0 at 58 Knots
08:39 VATSIM:LEVC 060830Z 34007KT 9999 FEW025 12/08 Q1026 WS R30 NOSIG
08:39 Land
08:39 Wind:330º@009 Knots
08:39 Heading: 295º
08:39 Flight Duration: 00:58
08:39 Landing Weight: 204940 Lbs
08:39 POS N39º 29´ 24´´ W000º 29´ 01´´
08:41 Parking brakes on
08:41 Block to Block Duration: 01:04
08:41 Final Fuel: 17572 Lbls
08:41 Spent Fuel: 12588 Lbls
08:41 Flight Length: 316 NM
08:41 TOD Land Length: 91 NM

Exportar CSV

Powered by Drupal - Modified by Danger4k